Autonomia — CUXX — position and weather

sailwx.info

Track history (hours):
 
Tides and Currents Weather Stations Pressure Air Temp Water Temp Dewpoint Dewpoint Depression Visibility Wind Speed Wind Dir Waves Ship Positions

Autonomia

Last reported at 2016-Jul-27 12:33 UTC. Time now 2016-Jul-27 13:28 UTC.
Position N 37°48' W 025°47'.

Length 27 m; draft 19 m.

Type: Ship. MMSI: 255500118.

Date/timePositionNaut miles runAvg speedWind from/ knotsBaromVisibWave heightAir tempDewpointWater temp
2016-Jul-27 12:33N 37°48' W 025°47'0 0.4
2016-Jul-27 11:34N 37°47' W 025°47'1 0.8
2016-Jul-27 10:33N 37°47' W 025°46'0 0.0
2016-Jul-27 09:33N 37°47' W 025°46'0 0.3
2016-Jul-27 08:33N 37°46' W 025°46'1 0.8
2016-Jul-27 07:33N 37°46' W 025°45'1 0.9
2016-Jul-27 06:33N 37°45' W 025°44'4 3.5
2016-Jul-27 05:33N 37°44' W 025°40'0 0.0
2016-Jul-27 04:33N 37°44' W 025°40'0 0.0
2016-Jul-27 03:33N 37°44' W 025°40'0 0.0
2016-Jul-27 02:33N 37°44' W 025°40'0 0.0
2016-Jul-27 01:33N 37°44' W 025°40'7 7.4
2016-Jul-27 00:33N 37°42' W 025°31'3 2.8
2016-Jul-26 23:33N 37°42' W 025°28'7 6.5
2016-Jul-26 22:33N 37°43' W 025°36'8 8.1
2016-Jul-26 21:33N 37°45' W 025°46'8 8.0
2016-Jul-26 20:33N 37°51' W 025°51'0 0.2
2016-Jul-26 19:34N 37°52' W 025°51'1 1.3
2016-Jul-26 18:33N 37°50' W 025°51'0 0.1
2016-Jul-26 17:33N 37°50' W 025°51'3 2.9
2016-Jul-26 16:33N 37°48' W 025°48'2 1.8
2016-Jul-26 15:33N 37°47' W 025°47'2 2.3
2016-Jul-26 14:33N 37°45' W 025°44'1 1.4
2016-Jul-26 13:34N 37°45' W 025°43'2 2.1
2016-Jul-26 12:33N 37°44' W 025°41'1 0.6
2016-Jul-26 11:33N 37°44' W 025°40'0 0.0
2016-Jul-26 10:33N 37°44' W 025°40'0 0.0
2016-Jul-26 09:33N 37°44' W 025°40'0 0.0
2016-Jul-26 08:33N 37°44' W 025°40'0 0.0
2016-Jul-26 07:33N 37°44' W 025°40'0 0.0
2016-Jul-26 06:33N 37°44' W 025°40'0 0.0
2016-Jul-26 05:33N 37°44' W 025°40'0 0.0
2016-Jul-26 04:33N 37°44' W 025°40'0 0.0
2016-Jul-26 03:33N 37°44' W 025°40'0 0.0
2016-Jul-26 02:33N 37°44' W 025°40'0 0.0
2016-Jul-26 01:33N 37°44' W 025°40'0 0.0
2016-Jul-26 00:33N 37°44' W 025°40'0 0.0
2016-Jul-25 23:33N 37°44' W 025°40'0 0.0
2016-Jul-25 22:34N 37°44' W 025°40'0 0.0
2016-Jul-25 21:33N 37°44' W 025°40'0 0.0
2016-Jul-25 20:33N 37°44' W 025°40'4 4.4
2016-Jul-25 19:33N 37°40' W 025°37'8 8.0
2016-Jul-25 18:33N 37°33' W 025°32'8 8.1
2016-Jul-25 17:34N 37°26' W 025°28'8 7.7
2016-Jul-25 16:33N 37°19' W 025°24'9 9.1
2016-Jul-25 15:34N 37°11' W 025°18'10 9.6
2016-Jul-25 14:33N 37°02' W 025°14'7 7.0
2016-Jul-25 13:33N 36°57' W 025°09'0 0.0
2016-Jul-25 12:33N 36°57' W 025°09'0 0.0
2016-Jul-25 11:33N 36°57' W 025°09'0 0.0
2016-Jul-25 10:33N 36°57' W 025°09'0 0.0
2016-Jul-25 09:33N 36°57' W 025°09'0 0.0
2016-Jul-25 08:33N 36°57' W 025°09'0 0.0
2016-Jul-25 07:33N 36°57' W 025°09'0 0.0
2016-Jul-25 06:33N 36°57' W 025°09'0 0.0
2016-Jul-25 05:33N 36°57' W 025°09'0 0.0
2016-Jul-25 04:33N 36°57' W 025°09'0 0.0
2016-Jul-25 03:33N 36°57' W 025°09'0 0.0
2016-Jul-25 02:33N 36°57' W 025°09'0 0.0
2016-Jul-25 01:33N 36°57' W 025°09'0 0.0
2016-Jul-25 00:33N 36°57' W 025°09'0 0.0
2016-Jul-24 23:33N 36°57' W 025°09'0 0.0
2016-Jul-24 22:33N 36°57' W 025°09'0 0.0
2016-Jul-24 21:34N 36°57' W 025°09'0 0.0
2016-Jul-24 20:33N 36°57' W 025°09'0 0.0
2016-Jul-24 19:33N 36°57' W 025°09'0 0.0
2016-Jul-24 18:33N 36°57' W 025°09'0 0.0
2016-Jul-24 17:34N 36°57' W 025°09'0 0.0
2016-Jul-24 16:33N 36°57' W 025°09'0 0.0
2016-Jul-24 15:33N 36°57' W 025°09'0 0.0
2016-Jul-24 14:33N 36°57' W 025°09'0 0.0
2016-Jul-24 13:33N 36°57' W 025°09'0 0.0
2016-Jul-24 12:33N 36°57' W 025°09'0 0.0
2016-Jul-24 11:33N 36°57' W 025°09'3 2.8
2016-Jul-24 10:33N 36°55' W 025°06'8 8.3
2016-Jul-24 09:34N 36°54' W 024°56'9 9.2
2016-Jul-24 08:33N 36°56' W 024°44'18 1.1
2016-Jul-23 16:33N 37°02' W 024°24'1 1.0
2016-Jul-23 15:33N 37°02' W 024°25'1 1.0
2016-Jul-23 14:33N 37°01' W 024°26'0 0.4
2016-Jul-23 13:33N 37°01' W 024°26'2 1.5
2016-Jul-23 12:34N 37°00' W 024°28'1 1.4
2016-Jul-23 11:33N 36°60' W 024°30'2 1.7
2016-Jul-23 10:33N 36°59' W 024°32'1 1.1
2016-Jul-23 09:33N 36°59' W 024°33'1 1.5
2016-Jul-23 08:34N 36°59' W 024°35'2 2.1
2016-Jul-23 07:33N 36°57' W 024°37'2 1.6
2016-Jul-23 06:33N 36°59' W 024°38'1 0.5
2016-Jul-23 04:34N 36°59' W 024°37'1 0.7
2016-Jul-23 03:34N 36°59' W 024°36'1 0.9
2016-Jul-23 02:33N 36°59' W 024°35'1 1.0
2016-Jul-23 01:33N 36°59' W 024°34'1 1.1
2016-Jul-23 00:33N 36°59' W 024°32'1 0.9
2016-Jul-22 23:33N 36°59' W 024°31'1 1.2
2016-Jul-22 22:33N 36°59' W 024°30'1 1.3
2016-Jul-22 21:33N 36°60' W 024°28'1 1.0
2016-Jul-22 20:33N 37°01' W 024°27'1 0.8
2016-Jul-22 19:33N 37°01' W 024°26'1 0.7
2016-Jul-22 18:33N 37°02' W 024°26'1 0.6
2016-Jul-22 17:34N 37°02' W 024°25'0 0.4
2016-Jul-22 16:33N 37°01' W 024°25'2 1.5
2016-Jul-22 15:33N 37°01' W 024°27'0 0.3
2016-Jul-22 14:33N 37°01' W 024°27'1 0.8
2016-Jul-22 13:33N 37°01' W 024°27'1 0.7
2016-Jul-22 12:33N 37°01' W 024°26'1 0.8
2016-Jul-22 11:34N 37°02' W 024°25'1 0.6
2016-Jul-22 10:33N 37°01' W 024°25'1 1.3
2016-Jul-22 09:33N 37°00' W 024°27'2 1.8
2016-Jul-22 08:33N 36°59' W 024°28'2 1.7
2016-Jul-22 07:33N 36°59' W 024°30'2 1.0
2016-Jul-22 05:34N 36°59' W 024°33'0 0.3
2016-Jul-22 04:33N 36°60' W 024°33'0 0.1
2016-Jul-22 03:33N 36°59' W 024°33'0 0.5
2016-Jul-22 02:33N 36°59' W 024°32'1 0.7
2016-Jul-22 01:33N 36°59' W 024°31'1 0.9
2016-Jul-22 00:33N 36°59' W 024°30'1 1.1
2016-Jul-21 23:33N 36°59' W 024°29'1 1.3
2016-Jul-21 22:33N 36°60' W 024°27'1 1.3
2016-Jul-21 21:33N 37°01' W 024°26'1 0.7
2016-Jul-21 20:33N 36°60' W 024°26'1 0.6
2016-Jul-21 19:33N 36°59' W 024°26'1 1.3
2016-Jul-21 18:33N 37°00' W 024°25'1 1.0
2016-Jul-21 17:33N 37°01' W 024°25'0 0.2
2016-Jul-21 16:33N 37°01' W 024°25'2 1.6
2016-Jul-21 15:33N 36°60' W 024°24'0 0.3
2016-Jul-21 14:33N 36°60' W 024°24'1 0.6
2016-Jul-21 13:33N 36°60' W 024°24'1 0.8
2016-Jul-21 12:33N 37°01' W 024°24'1 0.6
2016-Jul-21 11:33N 37°01' W 024°24'0 0.2
2016-Jul-21 10:33N 37°02' W 024°24'1 0.4
2016-Jul-21 08:33N 37°02' W 024°24'1 1.0
2016-Jul-21 07:34N 37°02' W 024°25'2 1.7
2016-Jul-21 06:33N 37°01' W 024°27'1 0.9
2016-Jul-21 05:33N 37°02' W 024°28'1 0.6
2016-Jul-21 04:33N 37°02' W 024°29'0 0.4
2016-Jul-21 03:33N 37°02' W 024°29'0 0.3
2016-Jul-21 02:34N 37°02' W 024°29'0 0.4
2016-Jul-21 01:34N 37°02' W 024°30'0 0.5
2016-Jul-21 00:33N 37°01' W 024°29'1 0.5
2016-Jul-20 23:34N 37°01' W 024°29'1 0.7
2016-Jul-20 22:34N 37°01' W 024°28'1 0.9
2016-Jul-20 21:33N 37°01' W 024°27'1 1.1
2016-Jul-20 20:33N 37°02' W 024°26'1 1.1
2016-Jul-20 19:33N 37°01' W 024°25'2 1.6
2016-Jul-20 18:33N 36°59' W 024°24'0 0.3
2016-Jul-20 17:34N 36°59' W 024°24'1 0.8
2016-Jul-20 16:33N 36°60' W 024°24'1 0.8
2016-Jul-20 15:33N 37°01' W 024°24'1 0.9
2016-Jul-20 14:33N 37°01' W 024°24'1 0.6
2016-Jul-20 13:33N 37°01' W 024°25'1 0.6
2016-Jul-20 12:33N 37°00' W 024°25'0 0.4
2016-Jul-20 11:34N 37°00' W 024°25'1 0.5
2016-Jul-20 10:33N 37°01' W 024°25'0 0.3
2016-Jul-20 09:34N 37°01' W 024°25'0 0.2
2016-Jul-20 08:33N 37°01' W 024°25'2 1.7
2016-Jul-20 07:33N 36°60' W 024°25'1 1.0
2016-Jul-20 06:34N 36°59' W 024°25'0 0.2
2016-Jul-20 05:33N 36°59' W 024°25'0 0.5
2016-Jul-20 04:33N 36°59' W 024°24'0 0.4
2016-Jul-20 03:33N 36°60' W 024°24'0 0.5
2016-Jul-20 02:34N 37°00' W 024°24'1 0.7
2016-Jul-20 01:34N 37°01' W 024°23'1 1.2
2016-Jul-20 00:33N 37°00' W 024°22'2 2.4
2016-Jul-19 23:33N 36°59' W 024°19'2 2.0
2016-Jul-19 22:34N 36°58' W 024°17'1 1.4
2016-Jul-19 21:33N 36°57' W 024°15'1 0.8
2016-Jul-19 20:33N 36°58' W 024°16'1 0.5
2016-Jul-19 19:34N 36°58' W 024°15'1 1.2
2016-Jul-19 18:33N 36°58' W 024°14'1 0.5
2016-Jul-19 17:34N 36°58' W 024°14'0 0.4
2016-Jul-19 16:33N 36°58' W 024°14'1 1.5
2016-Jul-19 15:34N 36°57' W 024°12'2 1.6
2016-Jul-19 14:33N 36°57' W 024°11'1 1.4
2016-Jul-19 13:34N 36°55' W 024°10'2 1.5
2016-Jul-19 12:33N 36°54' W 024°08'2 1.6
2016-Jul-19 11:34N 36°53' W 024°07'2 1.6
2016-Jul-19 10:33N 36°52' W 024°05'2 1.9
2016-Jul-19 09:33N 36°51' W 024°04'2 1.7
2016-Jul-19 08:33N 36°50' W 024°02'2 1.9
2016-Jul-19 07:33N 36°48' W 024°01'  
Track history (hours):
 
Tides and Currents Weather Stations Pressure Air Temp Water Temp Dewpoint Dewpoint Depression Visibility Wind Speed Wind Dir Waves Ship Positions

Autonomia

Last reported at 2016-Jul-27 12:33 UTC. Time now 2016-Jul-27 13:28 UTC.
Position N 37°48' W 025°47'.

Length 27 m; draft 19 m.

Type: Ship. MMSI: 255500118.

Date/timePositionNaut miles runAvg speedWind from/ knotsBaromVisibWave heightAir tempDewpointWater temp
2016-Jul-27 12:33N 37°48' W 025°47'0 0.4
2016-Jul-27 11:34N 37°47' W 025°47'1 0.8
2016-Jul-27 10:33N 37°47' W 025°46'0 0.0
2016-Jul-27 09:33N 37°47' W 025°46'0 0.3
2016-Jul-27 08:33N 37°46' W 025°46'1 0.8
2016-Jul-27 07:33N 37°46' W 025°45'1 0.9
2016-Jul-27 06:33N 37°45' W 025°44'4 3.5
2016-Jul-27 05:33N 37°44' W 025°40'0 0.0
2016-Jul-27 04:33N 37°44' W 025°40'0 0.0
2016-Jul-27 03:33N 37°44' W 025°40'0 0.0
2016-Jul-27 02:33N 37°44' W 025°40'0 0.0
2016-Jul-27 01:33N 37°44' W 025°40'7 7.4
2016-Jul-27 00:33N 37°42' W 025°31'3 2.8
2016-Jul-26 23:33N 37°42' W 025°28'7 6.5
2016-Jul-26 22:33N 37°43' W 025°36'8 8.1
2016-Jul-26 21:33N 37°45' W 025°46'8 8.0
2016-Jul-26 20:33N 37°51' W 025°51'0 0.2
2016-Jul-26 19:34N 37°52' W 025°51'1 1.3
2016-Jul-26 18:33N 37°50' W 025°51'0 0.1
2016-Jul-26 17:33N 37°50' W 025°51'3 2.9
2016-Jul-26 16:33N 37°48' W 025°48'2 1.8
2016-Jul-26 15:33N 37°47' W 025°47'2 2.3
2016-Jul-26 14:33N 37°45' W 025°44'1 1.4
2016-Jul-26 13:34N 37°45' W 025°43'2 2.1
2016-Jul-26 12:33N 37°44' W 025°41'1 0.6
2016-Jul-26 11:33N 37°44' W 025°40'0 0.0
2016-Jul-26 10:33N 37°44' W 025°40'0 0.0
2016-Jul-26 09:33N 37°44' W 025°40'0 0.0
2016-Jul-26 08:33N 37°44' W 025°40'0 0.0
2016-Jul-26 07:33N 37°44' W 025°40'0 0.0
2016-Jul-26 06:33N 37°44' W 025°40'0 0.0
2016-Jul-26 05:33N 37°44' W 025°40'0 0.0
2016-Jul-26 04:33N 37°44' W 025°40'0 0.0
2016-Jul-26 03:33N 37°44' W 025°40'0 0.0
2016-Jul-26 02:33N 37°44' W 025°40'0 0.0
2016-Jul-26 01:33N 37°44' W 025°40'0 0.0
2016-Jul-26 00:33N 37°44' W 025°40'0 0.0
2016-Jul-25 23:33N 37°44' W 025°40'0 0.0
2016-Jul-25 22:34N 37°44' W 025°40'0 0.0
2016-Jul-25 21:33N 37°44' W 025°40'0 0.0
2016-Jul-25 20:33N 37°44' W 025°40'4 4.4
2016-Jul-25 19:33N 37°40' W 025°37'8 8.0
2016-Jul-25 18:33N 37°33' W 025°32'8 8.1
2016-Jul-25 17:34N 37°26' W 025°28'8 7.7
2016-Jul-25 16:33N 37°19' W 025°24'9 9.1
2016-Jul-25 15:34N 37°11' W 025°18'10 9.6
2016-Jul-25 14:33N 37°02' W 025°14'7 7.0
2016-Jul-25 13:33N 36°57' W 025°09'0 0.0
2016-Jul-25 12:33N 36°57' W 025°09'0 0.0
2016-Jul-25 11:33N 36°57' W 025°09'0 0.0
2016-Jul-25 10:33N 36°57' W 025°09'0 0.0
2016-Jul-25 09:33N 36°57' W 025°09'0 0.0
2016-Jul-25 08:33N 36°57' W 025°09'0 0.0
2016-Jul-25 07:33N 36°57' W 025°09'0 0.0
2016-Jul-25 06:33N 36°57' W 025°09'0 0.0
2016-Jul-25 05:33N 36°57' W 025°09'0 0.0
2016-Jul-25 04:33N 36°57' W 025°09'0 0.0
2016-Jul-25 03:33N 36°57' W 025°09'0 0.0
2016-Jul-25 02:33N 36°57' W 025°09'0 0.0
2016-Jul-25 01:33N 36°57' W 025°09'0 0.0
2016-Jul-25 00:33N 36°57' W 025°09'0 0.0
2016-Jul-24 23:33N 36°57' W 025°09'0 0.0
2016-Jul-24 22:33N 36°57' W 025°09'0 0.0
2016-Jul-24 21:34N 36°57' W 025°09'0 0.0
2016-Jul-24 20:33N 36°57' W 025°09'0 0.0
2016-Jul-24 19:33N 36°57' W 025°09'0 0.0
2016-Jul-24 18:33N 36°57' W 025°09'0 0.0
2016-Jul-24 17:34N 36°57' W 025°09'0 0.0
2016-Jul-24 16:33N 36°57' W 025°09'0 0.0
2016-Jul-24 15:33N 36°57' W 025°09'0 0.0
2016-Jul-24 14:33N 36°57' W 025°09'0 0.0
2016-Jul-24 13:33N 36°57' W 025°09'0 0.0
2016-Jul-24 12:33N 36°57' W 025°09'0 0.0
2016-Jul-24 11:33N 36°57' W 025°09'3 2.8
2016-Jul-24 10:33N 36°55' W 025°06'8 8.3
2016-Jul-24 09:34N 36°54' W 024°56'9 9.2
2016-Jul-24 08:33N 36°56' W 024°44'18 1.1
2016-Jul-23 16:33N 37°02' W 024°24'1 1.0
2016-Jul-23 15:33N 37°02' W 024°25'1 1.0
2016-Jul-23 14:33N 37°01' W 024°26'0 0.4
2016-Jul-23 13:33N 37°01' W 024°26'2 1.5
2016-Jul-23 12:34N 37°00' W 024°28'1 1.4
2016-Jul-23 11:33N 36°60' W 024°30'2 1.7
2016-Jul-23 10:33N 36°59' W 024°32'1 1.1
2016-Jul-23 09:33N 36°59' W 024°33'1 1.5
2016-Jul-23 08:34N 36°59' W 024°35'2 2.1
2016-Jul-23 07:33N 36°57' W 024°37'2 1.6
2016-Jul-23 06:33N 36°59' W 024°38'1 0.5
2016-Jul-23 04:34N 36°59' W 024°37'1 0.7
2016-Jul-23 03:34N 36°59' W 024°36'1 0.9
2016-Jul-23 02:33N 36°59' W 024°35'1 1.0
2016-Jul-23 01:33N 36°59' W 024°34'1 1.1
2016-Jul-23 00:33N 36°59' W 024°32'1 0.9
2016-Jul-22 23:33N 36°59' W 024°31'1 1.2
2016-Jul-22 22:33N 36°59' W 024°30'1 1.3
2016-Jul-22 21:33N 36°60' W 024°28'1 1.0
2016-Jul-22 20:33N 37°01' W 024°27'1 0.8
2016-Jul-22 19:33N 37°01' W 024°26'1 0.7
2016-Jul-22 18:33N 37°02' W 024°26'1 0.6
2016-Jul-22 17:34N 37°02' W 024°25'0 0.4
2016-Jul-22 16:33N 37°01' W 024°25'2 1.5
2016-Jul-22 15:33N 37°01' W 024°27'0 0.3
2016-Jul-22 14:33N 37°01' W 024°27'1 0.8
2016-Jul-22 13:33N 37°01' W 024°27'1 0.7
2016-Jul-22 12:33N 37°01' W 024°26'1 0.8
2016-Jul-22 11:34N 37°02' W 024°25'1 0.6
2016-Jul-22 10:33N 37°01' W 024°25'1 1.3
2016-Jul-22 09:33N 37°00' W 024°27'2 1.8
2016-Jul-22 08:33N 36°59' W 024°28'2 1.7
2016-Jul-22 07:33N 36°59' W 024°30'2 1.0
2016-Jul-22 05:34N 36°59' W 024°33'0 0.3
2016-Jul-22 04:33N 36°60' W 024°33'0 0.1
2016-Jul-22 03:33N 36°59' W 024°33'0 0.5
2016-Jul-22 02:33N 36°59' W 024°32'1 0.7
2016-Jul-22 01:33N 36°59' W 024°31'1 0.9
2016-Jul-22 00:33N 36°59' W 024°30'1 1.1
2016-Jul-21 23:33N 36°59' W 024°29'1 1.3
2016-Jul-21 22:33N 36°60' W 024°27'1 1.3
2016-Jul-21 21:33N 37°01' W 024°26'1 0.7
2016-Jul-21 20:33N 36°60' W 024°26'1 0.6
2016-Jul-21 19:33N 36°59' W 024°26'1 1.3
2016-Jul-21 18:33N 37°00' W 024°25'1 1.0
2016-Jul-21 17:33N 37°01' W 024°25'0 0.2
2016-Jul-21 16:33N 37°01' W 024°25'2 1.6
2016-Jul-21 15:33N 36°60' W 024°24'0 0.3
2016-Jul-21 14:33N 36°60' W 024°24'1 0.6
2016-Jul-21 13:33N 36°60' W 024°24'1 0.8
2016-Jul-21 12:33N 37°01' W 024°24'1 0.6
2016-Jul-21 11:33N 37°01' W 024°24'0 0.2
2016-Jul-21 10:33N 37°02' W 024°24'1 0.4
2016-Jul-21 08:33N 37°02' W 024°24'1 1.0
2016-Jul-21 07:34N 37°02' W 024°25'2 1.7
2016-Jul-21 06:33N 37°01' W 024°27'1 0.9
2016-Jul-21 05:33N 37°02' W 024°28'1 0.6
2016-Jul-21 04:33N 37°02' W 024°29'0 0.4
2016-Jul-21 03:33N 37°02' W 024°29'0 0.3
2016-Jul-21 02:34N 37°02' W 024°29'0 0.4
2016-Jul-21 01:34N 37°02' W 024°30'0 0.5
2016-Jul-21 00:33N 37°01' W 024°29'1 0.5
2016-Jul-20 23:34N 37°01' W 024°29'1 0.7
2016-Jul-20 22:34N 37°01' W 024°28'1 0.9
2016-Jul-20 21:33N 37°01' W 024°27'1 1.1
2016-Jul-20 20:33N 37°02' W 024°26'1 1.1
2016-Jul-20 19:33N 37°01' W 024°25'2 1.6
2016-Jul-20 18:33N 36°59' W 024°24'0 0.3
2016-Jul-20 17:34N 36°59' W 024°24'1 0.8
2016-Jul-20 16:33N 36°60' W 024°24'1 0.8
2016-Jul-20 15:33N 37°01' W 024°24'1 0.9
2016-Jul-20 14:33N 37°01' W 024°24'1 0.6
2016-Jul-20 13:33N 37°01' W 024°25'1 0.6
2016-Jul-20 12:33N 37°00' W 024°25'0 0.4
2016-Jul-20 11:34N 37°00' W 024°25'1 0.5
2016-Jul-20 10:33N 37°01' W 024°25'0 0.3
2016-Jul-20 09:34N 37°01' W 024°25'0 0.2
2016-Jul-20 08:33N 37°01' W 024°25'2 1.7
2016-Jul-20 07:33N 36°60' W 024°25'1 1.0
2016-Jul-20 06:34N 36°59' W 024°25'0 0.2
2016-Jul-20 05:33N 36°59' W 024°25'0 0.5
2016-Jul-20 04:33N 36°59' W 024°24'0 0.4
2016-Jul-20 03:33N 36°60' W 024°24'0 0.5
2016-Jul-20 02:34N 37°00' W 024°24'1 0.7
2016-Jul-20 01:34N 37°01' W 024°23'1 1.2
2016-Jul-20 00:33N 37°00' W 024°22'2 2.4
2016-Jul-19 23:33N 36°59' W 024°19'2 2.0
2016-Jul-19 22:34N 36°58' W 024°17'1 1.4
2016-Jul-19 21:33N 36°57' W 024°15'1 0.8
2016-Jul-19 20:33N 36°58' W 024°16'1 0.5
2016-Jul-19 19:34N 36°58' W 024°15'1 1.2
2016-Jul-19 18:33N 36°58' W 024°14'1 0.5
2016-Jul-19 17:34N 36°58' W 024°14'0 0.4
2016-Jul-19 16:33N 36°58' W 024°14'1 1.5
2016-Jul-19 15:34N 36°57' W 024°12'2 1.6
2016-Jul-19 14:33N 36°57' W 024°11'1 1.4
2016-Jul-19 13:34N 36°55' W 024°10'2 1.5
2016-Jul-19 12:33N 36°54' W 024°08'2 1.6
2016-Jul-19 11:34N 36°53' W 024°07'2 1.6
2016-Jul-19 10:33N 36°52' W 024°05'2 1.9
2016-Jul-19 09:33N 36°51' W 024°04'2 1.7
2016-Jul-19 08:33N 36°50' W 024°02'2 1.9
2016-Jul-19 07:33N 36°48' W 024°01'  

Dump ship's entire track history